sensor_id;sensor_type;location;lat;lon;timestamp;P1;durP1;ratioP1;P2;durP2;ratioP2
7817;SDS011;3954;52.624;9.212;2022-07-31T00:01:44;8.83;;;6.20;;
7817;SDS011;3954;52.624;9.212;2022-07-31T00:04:10;8.33;;;6.57;;
7817;SDS011;3954;52.624;9.212;2022-07-31T00:06:36;10.67;;;6.43;;
7817;SDS011;3954;52.624;9.212;2022-07-31T00:09:03;9.77;;;6.87;;
7817;SDS011;3954;52.624;9.212;2022-07-31T00:11:29;10.17;;;6.53;;
7817;SDS011;3954;52.624;9.212;2022-07-31T00:13:55;12.30;;;7.17;;
7817;SDS011;3954;52.624;9.212;2022-07-31T00:16:21;8.10;;;6.40;;
7817;SDS011;3954;52.624;9.212;2022-07-31T00:18:48;7.77;;;6.97;;
7817;SDS011;3954;52.624;9.212;2022-07-31T00:21:14;9.17;;;7.07;;
7817;SDS011;3954;52.624;9.212;2022-07-31T00:23:40;9.87;;;7.33;;
7817;SDS011;3954;52.624;9.212;2022-07-31T00:26:06;8.47;;;6.90;;
7817;SDS011;3954;52.624;9.212;2022-07-31T00:28:32;8.90;;;6.90;;
7817;SDS011;3954;52.624;9.212;2022-07-31T00:30:58;7.97;;;7.17;;
7817;SDS011;3954;52.624;9.212;2022-07-31T00:33:24;6.90;;;6.30;;
7817;SDS011;3954;52.624;9.212;2022-07-31T00:35:51;10.23;;;6.93;;
7817;SDS011;3954;52.624;9.212;2022-07-31T00:38:17;8.53;;;6.83;;
7817;SDS011;3954;52.624;9.212;2022-07-31T00:40:44;7.03;;;6.10;;
7817;SDS011;3954;52.624;9.212;2022-07-31T00:43:12;9.77;;;6.63;;
7817;SDS011;3954;52.624;9.212;2022-07-31T00:45:38;8.30;;;6.10;;
7817;SDS011;3954;52.624;9.212;2022-07-31T00:48:04;6.50;;;5.63;;
7817;SDS011;3954;52.624;9.212;2022-07-31T00:50:30;6.73;;;6.13;;
7817;SDS011;3954;52.624;9.212;2022-07-31T00:52:58;8.10;;;6.60;;
7817;SDS011;3954;52.624;9.212;2022-07-31T00:55:24;6.67;;;5.30;;
7817;SDS011;3954;52.624;9.212;2022-07-31T00:57:50;6.10;;;5.50;;
7817;SDS011;3954;52.624;9.212;2022-07-31T01:00:16;6.53;;;5.60;;
7817;SDS011;3954;52.624;9.212;2022-07-31T01:02:42;6.90;;;5.97;;
7817;SDS011;3954;52.624;9.212;2022-07-31T01:05:08;8.53;;;6.93;;
7817;SDS011;3954;52.624;9.212;2022-07-31T01:07:34;8.20;;;6.67;;
7817;SDS011;3954;52.624;9.212;2022-07-31T01:10:02;9.27;;;6.47;;
7817;SDS011;3954;52.624;9.212;2022-07-31T01:12:30;7.13;;;6.50;;
7817;SDS011;3954;52.624;9.212;2022-07-31T01:14:58;8.13;;;6.33;;
7817;SDS011;3954;52.624;9.212;2022-07-31T01:17:26;7.50;;;6.67;;
7817;SDS011;3954;52.624;9.212;2022-07-31T01:19:54;7.10;;;6.17;;
7817;SDS011;3954;52.624;9.212;2022-07-31T01:22:26;8.77;;;7.27;;
7817;SDS011;3954;52.624;9.212;2022-07-31T01:24:57;8.27;;;6.77;;
7817;SDS011;3954;52.624;9.212;2022-07-31T01:27:31;10.83;;;7.73;;
7817;SDS011;3954;52.624;9.212;2022-07-31T01:30:03;8.77;;;6.97;;
7817;SDS011;3954;52.624;9.212;2022-07-31T01:32:31;7.47;;;6.77;;
7817;SDS011;3954;52.624;9.212;2022-07-31T01:34:59;9.60;;;6.90;;
7817;SDS011;3954;52.624;9.212;2022-07-31T01:37:29;9.60;;;7.47;;
7817;SDS011;3954;52.624;9.212;2022-07-31T01:39:56;7.63;;;7.00;;
7817;SDS011;3954;52.624;9.212;2022-07-31T01:42:24;9.13;;;7.03;;
7817;SDS011;3954;52.624;9.212;2022-07-31T01:44:52;8.13;;;7.23;;
7817;SDS011;3954;52.624;9.212;2022-07-31T01:47:20;8.20;;;7.50;;
7817;SDS011;3954;52.624;9.212;2022-07-31T01:49:47;8.13;;;6.97;;
7817;SDS011;3954;52.624;9.212;2022-07-31T01:52:14;10.43;;;7.70;;
7817;SDS011;3954;52.624;9.212;2022-07-31T01:54:40;8.80;;;7.40;;
7817;SDS011;3954;52.624;9.212;2022-07-31T02:00:11;9.33;;;7.40;;
7817;SDS011;3954;52.624;9.212;2022-07-31T02:02:38;8.23;;;7.43;;
7817;SDS011;3954;52.624;9.212;2022-07-31T02:05:05;7.90;;;7.30;;
7817;SDS011;3954;52.624;9.212;2022-07-31T02:07:32;8.10;;;7.30;;
7817;SDS011;3954;52.624;9.212;2022-07-31T02:09:59;9.03;;;6.63;;
7817;SDS011;3954;52.624;9.212;2022-07-31T02:12:26;8.93;;;8.03;;
7817;SDS011;3954;52.624;9.212;2022-07-31T02:14:52;7.73;;;7.00;;
7817;SDS011;3954;52.624;9.212;2022-07-31T02:17:20;6.90;;;6.40;;
7817;SDS011;3954;52.624;9.212;2022-07-31T02:19:47;7.60;;;6.90;;
7817;SDS011;3954;52.624;9.212;2022-07-31T02:22:14;7.90;;;7.13;;
7817;SDS011;3954;52.624;9.212;2022-07-31T02:24:40;8.13;;;7.33;;
7817;SDS011;3954;52.624;9.212;2022-07-31T02:27:06;7.40;;;6.80;;
7817;SDS011;3954;52.624;9.212;2022-07-31T02:29:32;7.80;;;7.00;;
7817;SDS011;3954;52.624;9.212;2022-07-31T02:31:58;7.27;;;6.60;;
7817;SDS011;3954;52.624;9.212;2022-07-31T02:34:25;9.93;;;8.40;;
7817;SDS011;3954;52.624;9.212;2022-07-31T02:36:53;8.87;;;7.97;;
7817;SDS011;3954;52.624;9.212;2022-07-31T02:39:19;8.80;;;7.87;;
7817;SDS011;3954;52.624;9.212;2022-07-31T02:41:46;7.97;;;7.30;;
7817;SDS011;3954;52.624;9.212;2022-07-31T02:44:13;8.90;;;8.20;;
7817;SDS011;3954;52.624;9.212;2022-07-31T02:46:40;9.50;;;8.63;;
7817;SDS011;3954;52.624;9.212;2022-07-31T02:49:07;10.90;;;9.93;;
7817;SDS011;3954;52.624;9.212;2022-07-31T02:51:33;11.27;;;8.27;;
7817;SDS011;3954;52.624;9.212;2022-07-31T02:54:01;12.67;;;9.47;;
7817;SDS011;3954;52.624;9.212;2022-07-31T02:56:27;12.57;;;9.60;;
7817;SDS011;3954;52.624;9.212;2022-07-31T02:58:53;11.13;;;10.07;;
7817;SDS011;3954;52.624;9.212;2022-07-31T03:01:19;11.97;;;10.50;;
7817;SDS011;3954;52.624;9.212;2022-07-31T03:03:45;11.03;;;10.10;;
7817;SDS011;3954;52.624;9.212;2022-07-31T03:06:11;13.13;;;11.20;;
7817;SDS011;3954;52.624;9.212;2022-07-31T03:08:38;12.77;;;11.67;;
7817;SDS011;3954;52.624;9.212;2022-07-31T03:11:05;13.60;;;12.17;;
7817;SDS011;3954;52.624;9.212;2022-07-31T03:13:32;14.73;;;13.23;;
7817;SDS011;3954;52.624;9.212;2022-07-31T03:15:59;14.00;;;12.80;;
7817;SDS011;3954;52.624;9.212;2022-07-31T03:18:26;13.67;;;12.27;;
7817;SDS011;3954;52.624;9.212;2022-07-31T03:20:53;14.43;;;13.03;;
7817;SDS011;3954;52.624;9.212;2022-07-31T03:23:20;13.60;;;12.30;;
7817;SDS011;3954;52.624;9.212;2022-07-31T03:25:47;14.47;;;12.77;;
7817;SDS011;3954;52.624;9.212;2022-07-31T03:28:14;13.13;;;11.97;;
7817;SDS011;3954;52.624;9.212;2022-07-31T03:30:40;14.27;;;12.90;;
7817;SDS011;3954;52.624;9.212;2022-07-31T03:33:06;14.67;;;13.23;;
7817;SDS011;3954;52.624;9.212;2022-07-31T03:35:32;14.63;;;13.13;;
7817;SDS011;3954;52.624;9.212;2022-07-31T03:37:58;13.40;;;12.20;;
7817;SDS011;3954;52.624;9.212;2022-07-31T03:40:24;14.80;;;13.30;;
7817;SDS011;3954;52.624;9.212;2022-07-31T03:42:50;17.20;;;15.00;;
7817;SDS011;3954;52.624;9.212;2022-07-31T03:45:18;16.27;;;14.67;;
7817;SDS011;3954;52.624;9.212;2022-07-31T03:47:45;14.23;;;12.87;;
7817;SDS011;3954;52.624;9.212;2022-07-31T03:50:11;16.00;;;14.50;;
7817;SDS011;3954;52.624;9.212;2022-07-31T03:52:38;16.80;;;14.63;;
7817;SDS011;3954;52.624;9.212;2022-07-31T03:55:05;14.27;;;13.07;;
7817;SDS011;3954;52.624;9.212;2022-07-31T03:57:31;16.97;;;15.23;;
7817;SDS011;3954;52.624;9.212;2022-07-31T03:59:58;16.17;;;14.63;;
7817;SDS011;3954;52.624;9.212;2022-07-31T04:02:27;17.73;;;16.00;;
7817;SDS011;3954;52.624;9.212;2022-07-31T04:04:54;16.20;;;14.80;;
7817;SDS011;3954;52.624;9.212;2022-07-31T04:07:21;14.60;;;13.30;;
7817;SDS011;3954;52.624;9.212;2022-07-31T04:09:47;15.17;;;13.73;;
7817;SDS011;3954;52.624;9.212;2022-07-31T04:12:13;17.33;;;15.83;;
7817;SDS011;3954;52.624;9.212;2022-07-31T04:14:39;18.17;;;16.40;;
7817;SDS011;3954;52.624;9.212;2022-07-31T04:17:05;17.70;;;16.00;;
7817;SDS011;3954;52.624;9.212;2022-07-31T04:19:32;17.27;;;15.60;;
7817;SDS011;3954;52.624;9.212;2022-07-31T04:21:59;16.97;;;15.40;;
7817;SDS011;3954;52.624;9.212;2022-07-31T04:24:25;21.70;;;19.50;;
7817;SDS011;3954;52.624;9.212;2022-07-31T04:26:53;23.30;;;18.00;;
7817;SDS011;3954;52.624;9.212;2022-07-31T04:29:19;17.10;;;15.50;;
7817;SDS011;3954;52.624;9.212;2022-07-31T04:31:45;19.60;;;16.43;;
7817;SDS011;3954;52.624;9.212;2022-07-31T04:34:11;17.07;;;15.63;;
7817;SDS011;3954;52.624;9.212;2022-07-31T04:36:39;17.90;;;16.30;;
7817;SDS011;3954;52.624;9.212;2022-07-31T04:39:05;15.73;;;14.33;;
7817;SDS011;3954;52.624;9.212;2022-07-31T04:41:31;19.77;;;17.70;;
7817;SDS011;3954;52.624;9.212;2022-07-31T04:43:57;17.30;;;15.80;;
7817;SDS011;3954;52.624;9.212;2022-07-31T04:46:23;19.03;;;17.13;;
7817;SDS011;3954;52.624;9.212;2022-07-31T04:48:49;17.93;;;16.23;;
7817;SDS011;3954;52.624;9.212;2022-07-31T04:51:16;16.67;;;15.00;;
7817;SDS011;3954;52.624;9.212;2022-07-31T04:53:43;16.80;;;15.30;;
7817;SDS011;3954;52.624;9.212;2022-07-31T04:56:10;19.70;;;17.77;;
7817;SDS011;3954;52.624;9.212;2022-07-31T04:58:54;16.97;;;15.37;;
7817;SDS011;3954;52.624;9.212;2022-07-31T05:01:20;18.20;;;16.53;;
7817;SDS011;3954;52.624;9.212;2022-07-31T05:03:46;17.63;;;15.93;;
7817;SDS011;3954;52.624;9.212;2022-07-31T05:06:12;19.00;;;17.20;;
7817;SDS011;3954;52.624;9.212;2022-07-31T05:08:38;17.40;;;15.67;;
7817;SDS011;3954;52.624;9.212;2022-07-31T05:11:06;17.63;;;16.03;;
7817;SDS011;3954;52.624;9.212;2022-07-31T05:13:47;16.67;;;15.13;;
7817;SDS011;3954;52.624;9.212;2022-07-31T05:16:13;18.20;;;16.40;;
7817;SDS011;3954;52.624;9.212;2022-07-31T05:18:39;18.90;;;16.83;;
7817;SDS011;3954;52.624;9.212;2022-07-31T05:21:06;17.70;;;16.10;;
7817;SDS011;3954;52.624;9.212;2022-07-31T05:23:32;18.63;;;16.90;;
7817;SDS011;3954;52.624;9.212;2022-07-31T05:25:58;18.23;;;16.30;;
7817;SDS011;3954;52.624;9.212;2022-07-31T05:28:25;17.60;;;16.03;;
7817;SDS011;3954;52.624;9.212;2022-07-31T05:30:51;18.07;;;16.23;;
7817;SDS011;3954;52.624;9.212;2022-07-31T05:33:17;18.13;;;16.37;;
7817;SDS011;3954;52.624;9.212;2022-07-31T05:35:43;17.13;;;15.50;;
7817;SDS011;3954;52.624;9.212;2022-07-31T05:38:09;17.53;;;15.83;;
7817;SDS011;3954;52.624;9.212;2022-07-31T05:40:35;18.87;;;16.97;;
7817;SDS011;3954;52.624;9.212;2022-07-31T05:43:01;18.43;;;16.63;;
7817;SDS011;3954;52.624;9.212;2022-07-31T05:45:29;17.80;;;16.07;;
7817;SDS011;3954;52.624;9.212;2022-07-31T05:47:55;16.40;;;14.80;;
7817;SDS011;3954;52.624;9.212;2022-07-31T05:50:21;15.97;;;14.50;;
7817;SDS011;3954;52.624;9.212;2022-07-31T05:52:47;14.97;;;13.73;;
7817;SDS011;3954;52.624;9.212;2022-07-31T05:55:16;15.83;;;13.13;;
7817;SDS011;3954;52.624;9.212;2022-07-31T05:57:42;14.23;;;12.93;;
7817;SDS011;3954;52.624;9.212;2022-07-31T06:00:08;15.50;;;13.90;;
7817;SDS011;3954;52.624;9.212;2022-07-31T06:02:36;15.40;;;13.67;;
7817;SDS011;3954;52.624;9.212;2022-07-31T06:05:02;14.20;;;12.60;;
7817;SDS011;3954;52.624;9.212;2022-07-31T06:07:28;14.40;;;12.17;;
7817;SDS011;3954;52.624;9.212;2022-07-31T06:09:54;13.47;;;11.90;;
7817;SDS011;3954;52.624;9.212;2022-07-31T06:12:20;11.73;;;10.67;;
7817;SDS011;3954;52.624;9.212;2022-07-31T06:14:46;14.97;;;10.50;;
7817;SDS011;3954;52.624;9.212;2022-07-31T06:17:12;11.57;;;10.03;;
7817;SDS011;3954;52.624;9.212;2022-07-31T06:19:39;12.10;;;10.90;;
7817;SDS011;3954;52.624;9.212;2022-07-31T06:22:05;15.70;;;9.60;;
7817;SDS011;3954;52.624;9.212;2022-07-31T06:24:31;11.40;;;9.30;;
7817;SDS011;3954;52.624;9.212;2022-07-31T06:26:59;10.90;;;9.60;;
7817;SDS011;3954;52.624;9.212;2022-07-31T06:29:26;10.33;;;8.27;;
7817;SDS011;3954;52.624;9.212;2022-07-31T06:31:52;11.93;;;8.50;;
7817;SDS011;3954;52.624;9.212;2022-07-31T06:34:18;9.30;;;8.40;;
7817;SDS011;3954;52.624;9.212;2022-07-31T06:36:45;9.83;;;7.80;;
7817;SDS011;3954;52.624;9.212;2022-07-31T06:39:11;8.10;;;7.30;;
7817;SDS011;3954;52.624;9.212;2022-07-31T06:41:37;10.23;;;7.07;;
7817;SDS011;3954;52.624;9.212;2022-07-31T06:44:13;9.47;;;7.23;;
7817;SDS011;3954;52.624;9.212;2022-07-31T06:46:39;9.90;;;6.60;;
7817;SDS011;3954;52.624;9.212;2022-07-31T06:49:05;8.27;;;6.27;;
7817;SDS011;3954;52.624;9.212;2022-07-31T06:51:31;6.97;;;5.60;;
7817;SDS011;3954;52.624;9.212;2022-07-31T06:53:58;11.57;;;5.80;;
7817;SDS011;3954;52.624;9.212;2022-07-31T06:56:25;6.47;;;4.80;;
7817;SDS011;3954;52.624;9.212;2022-07-31T06:58:51;10.87;;;5.63;;
7817;SDS011;3954;52.624;9.212;2022-07-31T07:01:19;5.57;;;4.30;;
7817;SDS011;3954;52.624;9.212;2022-07-31T07:03:45;7.27;;;4.37;;
7817;SDS011;3954;52.624;9.212;2022-07-31T07:06:11;5.90;;;4.40;;
7817;SDS011;3954;52.624;9.212;2022-07-31T07:08:37;8.80;;;4.80;;
7817;SDS011;3954;52.624;9.212;2022-07-31T07:11:04;8.50;;;4.57;;
7817;SDS011;3954;52.624;9.212;2022-07-31T07:13:30;8.43;;;4.30;;
7817;SDS011;3954;52.624;9.212;2022-07-31T07:15:56;6.10;;;3.90;;
7817;SDS011;3954;52.624;9.212;2022-07-31T07:18:22;6.77;;;4.00;;
7817;SDS011;3954;52.624;9.212;2022-07-31T07:20:48;4.87;;;4.20;;
7817;SDS011;3954;52.624;9.212;2022-07-31T07:23:15;4.03;;;3.53;;
7817;SDS011;3954;52.624;9.212;2022-07-31T07:25:41;4.73;;;3.83;;
7817;SDS011;3954;52.624;9.212;2022-07-31T07:28:08;4.63;;;3.50;;
7817;SDS011;3954;52.624;9.212;2022-07-31T07:30:34;4.10;;;3.57;;
7817;SDS011;3954;52.624;9.212;2022-07-31T07:33:00;6.80;;;3.70;;
7817;SDS011;3954;52.624;9.212;2022-07-31T07:35:27;4.90;;;3.50;;
7817;SDS011;3954;52.624;9.212;2022-07-31T07:37:53;7.83;;;3.83;;
7817;SDS011;3954;52.624;9.212;2022-07-31T07:40:19;13.77;;;3.67;;
7817;SDS011;3954;52.624;9.212;2022-07-31T07:42:46;5.97;;;3.43;;
7817;SDS011;3954;52.624;9.212;2022-07-31T07:45:13;4.00;;;3.00;;
7817;SDS011;3954;52.624;9.212;2022-07-31T07:47:39;8.07;;;3.47;;
7817;SDS011;3954;52.624;9.212;2022-07-31T07:50:06;3.70;;;3.17;;
7817;SDS011;3954;52.624;9.212;2022-07-31T07:52:32;4.37;;;3.40;;
7817;SDS011;3954;52.624;9.212;2022-07-31T07:54:58;15.73;;;3.47;;
7817;SDS011;3954;52.624;9.212;2022-07-31T07:57:24;8.07;;;2.90;;
7817;SDS011;3954;52.624;9.212;2022-07-31T07:59:51;4.97;;;2.83;;
7817;SDS011;3954;52.624;9.212;2022-07-31T08:02:18;6.50;;;3.00;;
7817;SDS011;3954;52.624;9.212;2022-07-31T08:04:44;6.00;;;2.90;;
7817;SDS011;3954;52.624;9.212;2022-07-31T08:07:10;3.83;;;2.70;;
7817;SDS011;3954;52.624;9.212;2022-07-31T08:09:38;5.40;;;3.07;;
7817;SDS011;3954;52.624;9.212;2022-07-31T08:12:04;3.93;;;2.60;;
7817;SDS011;3954;52.624;9.212;2022-07-31T08:14:30;4.63;;;2.93;;
7817;SDS011;3954;52.624;9.212;2022-07-31T08:16:56;5.00;;;2.90;;
7817;SDS011;3954;52.624;9.212;2022-07-31T08:19:24;4.50;;;2.70;;
7817;SDS011;3954;52.624;9.212;2022-07-31T08:21:50;4.07;;;2.50;;
7817;SDS011;3954;52.624;9.212;2022-07-31T08:24:16;6.53;;;2.60;;
7817;SDS011;3954;52.624;9.212;2022-07-31T08:26:42;4.23;;;2.70;;
7817;SDS011;3954;52.624;9.212;2022-07-31T08:29:27;4.40;;;2.87;;
7817;SDS011;3954;52.624;9.212;2022-07-31T08:31:53;3.40;;;2.63;;
7817;SDS011;3954;52.624;9.212;2022-07-31T08:34:19;4.60;;;2.70;;
7817;SDS011;3954;52.624;9.212;2022-07-31T08:36:46;2.97;;;2.23;;
7817;SDS011;3954;52.624;9.212;2022-07-31T08:39:12;4.10;;;2.50;;
7817;SDS011;3954;52.624;9.212;2022-07-31T08:41:38;5.20;;;2.37;;
7817;SDS011;3954;52.624;9.212;2022-07-31T08:44:04;7.27;;;2.70;;
7817;SDS011;3954;52.624;9.212;2022-07-31T08:46:30;4.23;;;2.70;;
7817;SDS011;3954;52.624;9.212;2022-07-31T08:48:57;4.17;;;2.40;;
7817;SDS011;3954;52.624;9.212;2022-07-31T08:51:24;4.53;;;2.70;;
7817;SDS011;3954;52.624;9.212;2022-07-31T08:53:51;3.83;;;2.50;;
7817;SDS011;3954;52.624;9.212;2022-07-31T08:56:18;3.53;;;2.27;;
7817;SDS011;3954;52.624;9.212;2022-07-31T08:58:45;3.03;;;2.43;;
7817;SDS011;3954;52.624;9.212;2022-07-31T09:01:11;4.23;;;2.10;;
7817;SDS011;3954;52.624;9.212;2022-07-31T09:03:37;4.77;;;2.23;;
7817;SDS011;3954;52.624;9.212;2022-07-31T09:06:04;6.83;;;2.53;;
7817;SDS011;3954;52.624;9.212;2022-07-31T09:08:30;3.03;;;2.40;;
7817;SDS011;3954;52.624;9.212;2022-07-31T09:11:01;5.83;;;2.53;;
7817;SDS011;3954;52.624;9.212;2022-07-31T09:13:28;2.90;;;1.97;;
7817;SDS011;3954;52.624;9.212;2022-07-31T09:15:56;2.43;;;2.20;;
7817;SDS011;3954;52.624;9.212;2022-07-31T09:18:22;6.53;;;2.87;;
7817;SDS011;3954;52.624;9.212;2022-07-31T09:20:53;4.57;;;2.47;;
7817;SDS011;3954;52.624;9.212;2022-07-31T09:23:20;6.63;;;2.77;;
7817;SDS011;3954;52.624;9.212;2022-07-31T09:25:50;2.80;;;1.97;;
7817;SDS011;3954;52.624;9.212;2022-07-31T09:28:17;2.93;;;2.20;;
7817;SDS011;3954;52.624;9.212;2022-07-31T09:30:51;3.73;;;2.50;;
7817;SDS011;3954;52.624;9.212;2022-07-31T09:33:18;3.80;;;2.10;;
7817;SDS011;3954;52.624;9.212;2022-07-31T09:35:46;3.47;;;2.30;;
7817;SDS011;3954;52.624;9.212;2022-07-31T09:38:12;3.63;;;2.50;;
7817;SDS011;3954;52.624;9.212;2022-07-31T09:40:38;5.87;;;2.37;;
7817;SDS011;3954;52.624;9.212;2022-07-31T09:43:12;4.00;;;2.20;;
7817;SDS011;3954;52.624;9.212;2022-07-31T09:45:40;3.27;;;2.63;;
7817;SDS011;3954;52.624;9.212;2022-07-31T09:48:10;3.03;;;2.60;;
7817;SDS011;3954;52.624;9.212;2022-07-31T09:50:44;4.43;;;2.53;;
7817;SDS011;3954;52.624;9.212;2022-07-31T09:53:16;4.43;;;2.50;;
7817;SDS011;3954;52.624;9.212;2022-07-31T09:55:47;3.93;;;2.70;;
7817;SDS011;3954;52.624;9.212;2022-07-31T09:58:13;3.63;;;2.67;;
7817;SDS011;3954;52.624;9.212;2022-07-31T10:00:41;4.63;;;2.90;;
7817;SDS011;3954;52.624;9.212;2022-07-31T10:03:07;6.53;;;3.10;;
7817;SDS011;3954;52.624;9.212;2022-07-31T10:05:33;5.53;;;4.07;;
7817;SDS011;3954;52.624;9.212;2022-07-31T10:08:00;5.63;;;2.93;;
7817;SDS011;3954;52.624;9.212;2022-07-31T10:10:27;12.67;;;9.63;;
7817;SDS011;3954;52.624;9.212;2022-07-31T10:12:54;45.93;;;41.23;;
7817;SDS011;3954;52.624;9.212;2022-07-31T10:15:21;3.33;;;2.63;;
7817;SDS011;3954;52.624;9.212;2022-07-31T10:17:49;8.30;;;2.57;;
7817;SDS011;3954;52.624;9.212;2022-07-31T10:20:17;2.87;;;2.07;;
7817;SDS011;3954;52.624;9.212;2022-07-31T10:22:46;2.53;;;2.00;;
7817;SDS011;3954;52.624;9.212;2022-07-31T10:25:14;1.80;;;1.70;;
7817;SDS011;3954;52.624;9.212;2022-07-31T10:27:41;5.27;;;3.77;;
7817;SDS011;3954;52.624;9.212;2022-07-31T10:30:08;2.83;;;2.10;;
7817;SDS011;3954;52.624;9.212;2022-07-31T10:32:34;5.80;;;3.53;;
7817;SDS011;3954;52.624;9.212;2022-07-31T10:35:03;3.10;;;1.93;;
7817;SDS011;3954;52.624;9.212;2022-07-31T10:37:31;2.87;;;1.97;;
7817;SDS011;3954;52.624;9.212;2022-07-31T10:39:59;3.87;;;2.00;;
7817;SDS011;3954;52.624;9.212;2022-07-31T10:42:30;5.30;;;2.00;;
7817;SDS011;3954;52.624;9.212;2022-07-31T10:45:02;2.97;;;1.80;;
7817;SDS011;3954;52.624;9.212;2022-07-31T10:47:28;5.93;;;1.97;;
7817;SDS011;3954;52.624;9.212;2022-07-31T10:49:54;5.33;;;2.60;;
7817;SDS011;3954;52.624;9.212;2022-07-31T10:52:28;2.93;;;2.07;;
7817;SDS011;3954;52.624;9.212;2022-07-31T10:54:55;2.57;;;2.17;;
7817;SDS011;3954;52.624;9.212;2022-07-31T10:57:24;3.50;;;2.00;;
7817;SDS011;3954;52.624;9.212;2022-07-31T10:59:50;3.53;;;2.00;;
7817;SDS011;3954;52.624;9.212;2022-07-31T11:02:27;4.90;;;2.17;;
7817;SDS011;3954;52.624;9.212;2022-07-31T11:05:04;2.80;;;1.90;;
7817;SDS011;3954;52.624;9.212;2022-07-31T11:07:32;3.20;;;2.10;;
7817;SDS011;3954;52.624;9.212;2022-07-31T11:10:06;3.33;;;2.03;;
7817;SDS011;3954;52.624;9.212;2022-07-31T11:12:32;4.43;;;2.13;;
7817;SDS011;3954;52.624;9.212;2022-07-31T11:14:58;2.60;;;1.87;;
7817;SDS011;3954;52.624;9.212;2022-07-31T11:17:30;3.47;;;2.00;;
7817;SDS011;3954;52.624;9.212;2022-07-31T11:19:57;2.47;;;2.00;;
7817;SDS011;3954;52.624;9.212;2022-07-31T11:22:23;3.57;;;1.97;;
7817;SDS011;3954;52.624;9.212;2022-07-31T11:24:53;4.07;;;2.10;;
7817;SDS011;3954;52.624;9.212;2022-07-31T11:27:28;3.67;;;1.90;;
7817;SDS011;3954;52.624;9.212;2022-07-31T11:30:01;4.10;;;2.30;;
7817;SDS011;3954;52.624;9.212;2022-07-31T11:32:27;3.33;;;2.00;;
7817;SDS011;3954;52.624;9.212;2022-07-31T11:34:54;3.07;;;2.47;;
7817;SDS011;3954;52.624;9.212;2022-07-31T11:37:21;5.07;;;2.10;;
7817;SDS011;3954;52.624;9.212;2022-07-31T11:39:50;3.60;;;2.40;;
7817;SDS011;3954;52.624;9.212;2022-07-31T11:42:18;2.70;;;2.17;;
7817;SDS011;3954;52.624;9.212;2022-07-31T11:44:45;4.80;;;2.17;;
7817;SDS011;3954;52.624;9.212;2022-07-31T11:47:11;3.93;;;2.20;;
7817;SDS011;3954;52.624;9.212;2022-07-31T11:49:37;4.37;;;2.33;;
7817;SDS011;3954;52.624;9.212;2022-07-31T11:52:04;3.03;;;2.10;;
7817;SDS011;3954;52.624;9.212;2022-07-31T11:54:31;2.77;;;1.83;;
7817;SDS011;3954;52.624;9.212;2022-07-31T11:56:57;8.93;;;2.30;;
7817;SDS011;3954;52.624;9.212;2022-07-31T11:59:28;2.93;;;2.13;;
7817;SDS011;3954;52.624;9.212;2022-07-31T12:02:01;4.20;;;2.33;;
7817;SDS011;3954;52.624;9.212;2022-07-31T12:04:27;2.73;;;1.90;;
7817;SDS011;3954;52.624;9.212;2022-07-31T12:06:54;4.27;;;1.87;;
7817;SDS011;3954;52.624;9.212;2022-07-31T12:09:20;3.17;;;2.20;;
7817;SDS011;3954;52.624;9.212;2022-07-31T12:11:46;4.13;;;1.93;;
7817;SDS011;3954;52.624;9.212;2022-07-31T12:14:12;4.50;;;2.60;;
7817;SDS011;3954;52.624;9.212;2022-07-31T12:16:40;20.53;;;14.43;;
7817;SDS011;3954;52.624;9.212;2022-07-31T12:19:07;6.40;;;4.50;;
7817;SDS011;3954;52.624;9.212;2022-07-31T12:21:34;43.00;;;36.80;;
7817;SDS011;3954;52.624;9.212;2022-07-31T12:24:00;7.20;;;4.07;;
7817;SDS011;3954;52.624;9.212;2022-07-31T12:26:27;4.23;;;2.30;;
7817;SDS011;3954;52.624;9.212;2022-07-31T12:28:57;4.23;;;2.50;;
7817;SDS011;3954;52.624;9.212;2022-07-31T12:31:24;3.40;;;2.30;;
7817;SDS011;3954;52.624;9.212;2022-07-31T12:33:51;5.07;;;2.90;;
7817;SDS011;3954;52.624;9.212;2022-07-31T12:36:18;2.40;;;2.20;;
7817;SDS011;3954;52.624;9.212;2022-07-31T12:38:44;4.00;;;2.23;;
7817;SDS011;3954;52.624;9.212;2022-07-31T12:41:10;2.93;;;2.30;;
7817;SDS011;3954;52.624;9.212;2022-07-31T12:43:36;6.43;;;2.30;;
7817;SDS011;3954;52.624;9.212;2022-07-31T12:46:02;3.27;;;2.80;;
7817;SDS011;3954;52.624;9.212;2022-07-31T12:48:31;3.30;;;2.47;;
7817;SDS011;3954;52.624;9.212;2022-07-31T12:50:59;5.17;;;2.00;;
7817;SDS011;3954;52.624;9.212;2022-07-31T12:53:26;4.93;;;3.07;;
7817;SDS011;3954;52.624;9.212;2022-07-31T12:55:52;9.70;;;3.40;;
7817;SDS011;3954;52.624;9.212;2022-07-31T12:58:18;4.70;;;2.60;;
7817;SDS011;3954;52.624;9.212;2022-07-31T13:00:44;2.80;;;2.50;;
7817;SDS011;3954;52.624;9.212;2022-07-31T13:03:10;3.97;;;2.97;;
7817;SDS011;3954;52.624;9.212;2022-07-31T13:05:36;3.07;;;2.20;;
7817;SDS011;3954;52.624;9.212;2022-07-31T13:08:04;4.10;;;2.90;;
7817;SDS011;3954;52.624;9.212;2022-07-31T13:10:32;2.40;;;2.17;;
7817;SDS011;3954;52.624;9.212;2022-07-31T13:12:58;5.53;;;2.63;;
7817;SDS011;3954;52.624;9.212;2022-07-31T13:15:24;3.10;;;2.60;;
7817;SDS011;3954;52.624;9.212;2022-07-31T13:17:56;4.70;;;3.30;;
7817;SDS011;3954;52.624;9.212;2022-07-31T13:20:22;7.63;;;2.77;;
7817;SDS011;3954;52.624;9.212;2022-07-31T13:22:48;5.87;;;4.87;;
7817;SDS011;3954;52.624;9.212;2022-07-31T13:25:16;2.87;;;2.33;;
7817;SDS011;3954;52.624;9.212;2022-07-31T13:27:43;2.43;;;2.00;;
7817;SDS011;3954;52.624;9.212;2022-07-31T13:30:09;3.57;;;2.07;;
7817;SDS011;3954;52.624;9.212;2022-07-31T13:32:36;2.33;;;1.90;;
7817;SDS011;3954;52.624;9.212;2022-07-31T13:35:02;3.77;;;2.17;;
7817;SDS011;3954;52.624;9.212;2022-07-31T13:37:28;2.60;;;2.40;;
7817;SDS011;3954;52.624;9.212;2022-07-31T13:39:54;5.50;;;2.20;;
7817;SDS011;3954;52.624;9.212;2022-07-31T13:42:21;3.17;;;2.43;;
7817;SDS011;3954;52.624;9.212;2022-07-31T13:44:47;3.60;;;2.17;;
7817;SDS011;3954;52.624;9.212;2022-07-31T13:47:13;3.80;;;2.40;;
7817;SDS011;3954;52.624;9.212;2022-07-31T13:49:39;5.53;;;2.60;;
7817;SDS011;3954;52.624;9.212;2022-07-31T13:52:05;4.53;;;2.37;;
7817;SDS011;3954;52.624;9.212;2022-07-31T13:54:31;3.83;;;2.00;;
7817;SDS011;3954;52.624;9.212;2022-07-31T13:56:57;5.20;;;2.20;;
7817;SDS011;3954;52.624;9.212;2022-07-31T13:59:24;3.20;;;2.20;;
7817;SDS011;3954;52.624;9.212;2022-07-31T14:01:51;2.87;;;2.10;;
7817;SDS011;3954;52.624;9.212;2022-07-31T14:04:17;3.43;;;2.30;;
7817;SDS011;3954;52.624;9.212;2022-07-31T14:06:44;2.67;;;2.07;;
7817;SDS011;3954;52.624;9.212;2022-07-31T14:09:10;4.13;;;2.50;;
7817;SDS011;3954;52.624;9.212;2022-07-31T14:11:36;5.40;;;2.70;;
7817;SDS011;3954;52.624;9.212;2022-07-31T14:14:02;5.03;;;2.57;;
7817;SDS011;3954;52.624;9.212;2022-07-31T14:16:30;2.67;;;2.37;;
7817;SDS011;3954;52.624;9.212;2022-07-31T14:18:56;4.10;;;2.83;;
7817;SDS011;3954;52.624;9.212;2022-07-31T14:21:22;4.10;;;2.97;;
7817;SDS011;3954;52.624;9.212;2022-07-31T14:23:48;4.23;;;2.57;;
7817;SDS011;3954;52.624;9.212;2022-07-31T14:26:14;4.03;;;2.70;;
7817;SDS011;3954;52.624;9.212;2022-07-31T14:28:40;3.33;;;2.63;;
7817;SDS011;3954;52.624;9.212;2022-07-31T14:31:06;3.17;;;2.87;;
7817;SDS011;3954;52.624;9.212;2022-07-31T14:33:33;4.67;;;2.90;;
7817;SDS011;3954;52.624;9.212;2022-07-31T14:35:59;3.63;;;2.80;;
7817;SDS011;3954;52.624;9.212;2022-07-31T14:38:27;3.83;;;2.97;;
7817;SDS011;3954;52.624;9.212;2022-07-31T14:40:53;4.43;;;2.90;;
7817;SDS011;3954;52.624;9.212;2022-07-31T14:43:20;4.40;;;2.60;;
7817;SDS011;3954;52.624;9.212;2022-07-31T14:45:46;4.50;;;3.03;;
7817;SDS011;3954;52.624;9.212;2022-07-31T14:48:12;5.83;;;3.20;;
7817;SDS011;3954;52.624;9.212;2022-07-31T14:50:39;4.23;;;3.20;;
7817;SDS011;3954;52.624;9.212;2022-07-31T14:53:07;4.13;;;2.70;;
7817;SDS011;3954;52.624;9.212;2022-07-31T14:55:33;3.40;;;3.00;;
7817;SDS011;3954;52.624;9.212;2022-07-31T14:57:59;4.07;;;2.73;;
7817;SDS011;3954;52.624;9.212;2022-07-31T15:00:25;7.60;;;2.50;;
7817;SDS011;3954;52.624;9.212;2022-07-31T15:02:51;4.57;;;2.30;;
7817;SDS011;3954;52.624;9.212;2022-07-31T15:05:17;2.67;;;2.33;;
7817;SDS011;3954;52.624;9.212;2022-07-31T15:07:44;2.63;;;1.90;;
7817;SDS011;3954;52.624;9.212;2022-07-31T15:10:11;3.03;;;2.23;;